Time;durP1;ratioP1;P1;durP2;ratioP2;P2;SDS_P1;SDS_P2;PMS_P1;PMS_P2;Temp;Humidity;BMP_temperature;BMP_pressure;BME280_temperature;BME280_humidity;BME280_pressure;Samples;Min_cycle;Max_cycle;Signal;HPM_P1;HPM_P2
2022/02/20 00:00:16;;;;;;;9.97;6.67;;;;;;;;;;4987498;28;20036;-54
2022/02/20 00:02:42;;;;;;;8.93;6.10;;;;;;;;;;5002183;28;20276;-54
2022/02/20 00:05:07;;;;;;;9.80;6.20;;;;;;;;;;5001980;28;20447;-55
2022/02/20 00:07:32;;;;;;;7.75;5.80;;;;;;;;;;5002145;28;20448;-55
2022/02/20 00:09:57;;;;;;;10.40;5.95;;;;;;;;;;5002267;28;20498;-55
2022/02/20 00:12:22;;;;;;;9.07;5.73;;;;;;;;;;5001709;28;20359;-55
2022/02/20 00:14:48;;;;;;;8.47;5.70;;;;;;;;;;4999891;28;20029;-54
2022/02/20 00:17:13;;;;;;;9.57;5.97;;;;;;;;;;4995582;28;20037;-54
2022/02/20 00:19:38;;;;;;;8.60;5.67;;;;;;;;;;4993816;28;20708;-55
2022/02/20 00:22:03;;;;;;;9.47;5.90;;;;;;;;;;5002297;28;20034;-54
2022/02/20 00:24:28;;;;;;;9.53;6.27;;;;;;;;;;5002117;28;20350;-54
2022/02/20 00:26:54;;;;;;;9.63;6.20;;;;;;;;;;4995950;28;20033;-54
2022/02/20 00:29:19;;;;;;;9.73;5.65;;;;;;;;;;4982378;28;20041;-54
2022/02/20 00:31:44;;;;;;;10.10;6.03;;;;;;;;;;4982569;28;20026;-53
2022/02/20 00:34:09;;;;;;;10.03;5.87;;;;;;;;;;4981707;28;20044;-54
2022/02/20 00:36:35;;;;;;;9.30;5.87;;;;;;;;;;4984856;28;20599;-53
2022/02/20 00:39:00;;;;;;;10.17;6.50;;;;;;;;;;5013224;28;20548;-54
2022/02/20 00:41:25;;;;;;;10.50;6.20;;;;;;;;;;5001596;28;20273;-55
2022/02/20 00:43:50;;;;;;;9.45;5.95;;;;;;;;;;5001795;28;20052;-54
2022/02/20 00:46:15;;;;;;;9.97;5.87;;;;;;;;;;5001239;28;20412;-56
2022/02/20 00:48:41;;;;;;;8.50;6.07;;;;;;;;;;5000777;28;20509;-56
2022/02/20 00:51:06;;;;;;;10.37;6.37;;;;;;;;;;5001818;28;20432;-55
2022/02/20 00:53:31;;;;;;;8.32;5.90;;;;;;;;;;5001376;28;20587;-56
2022/02/20 00:55:57;;;;;;;9.00;6.03;;;;;;;;;;5001471;28;20104;-54
2022/02/20 00:58:22;;;;;;;9.25;6.10;;;;;;;;;;5000393;28;20261;-57
2022/02/20 01:00:47;;;;;;;7.47;5.53;;;;;;;;;;5001147;28;20033;-57
2022/02/20 01:03:12;;;;;;;8.83;6.03;;;;;;;;;;5001023;28;20586;-55
2022/02/20 01:05:38;;;;;;;8.67;5.73;;;;;;;;;;5000960;28;20281;-57
2022/02/20 01:08:03;;;;;;;9.60;6.40;;;;;;;;;;5001082;28;20308;-57
2022/02/20 01:10:28;;;;;;;8.63;5.75;;;;;;;;;;5000643;28;20420;-57
2022/02/20 01:12:54;;;;;;;8.63;5.90;;;;;;;;;;5000710;28;20033;-57
2022/02/20 01:15:19;;;;;;;10.32;6.30;;;;;;;;;;5001583;28;20061;-57
2022/02/20 01:17:44;;;;;;;8.85;5.88;;;;;;;;;;5000481;28;20547;-56
2022/02/20 01:20:10;;;;;;;10.07;6.20;;;;;;;;;;5000704;28;20464;-57
2022/02/20 01:22:35;;;;;;;10.02;6.53;;;;;;;;;;4983407;28;20971;-57
2022/02/20 01:25:00;;;;;;;9.80;6.50;;;;;;;;;;5000756;28;20026;-57
2022/02/20 01:27:25;;;;;;;10.40;6.70;;;;;;;;;;5000471;28;20275;-57
2022/02/20 01:29:51;;;;;;;10.83;5.70;;;;;;;;;;5000953;28;20041;-57
2022/02/20 01:32:16;;;;;;;10.03;6.37;;;;;;;;;;5001077;28;20105;-56
2022/02/20 01:34:41;;;;;;;8.93;5.63;;;;;;;;;;5000470;28;20296;-57
2022/02/20 01:37:07;;;;;;;10.35;6.57;;;;;;;;;;5001031;28;21146;-57
2022/02/20 01:39:32;;;;;;;8.73;5.85;;;;;;;;;;4989659;28;20032;-57
2022/02/20 01:41:57;;;;;;;12.23;6.70;;;;;;;;;;4976242;28;20042;-57
2022/02/20 01:44:22;;;;;;;10.03;6.37;;;;;;;;;;4980867;28;20281;-57
2022/02/20 01:46:48;;;;;;;9.25;6.20;;;;;;;;;;4980932;28;20022;-56
2022/02/20 01:49:16;;;;;;;11.15;6.95;;;;;;;;;;4980231;28;20058;-56
2022/02/20 01:51:41;;;;;;;9.75;6.53;;;;;;;;;;4980993;28;20031;-57
2022/02/20 01:54:07;;;;;;;9.40;5.90;;;;;;;;;;4980929;28;20314;-57
2022/02/20 01:56:32;;;;;;;10.80;7.20;;;;;;;;;;4982372;28;20349;-55
2022/02/20 01:58:57;;;;;;;9.27;5.93;;;;;;;;;;5006545;28;20285;-56
2022/02/20 02:01:23;;;;;;;10.10;6.10;;;;;;;;;;4962681;28;20026;-56
2022/02/20 02:03:48;;;;;;;9.93;6.50;;;;;;;;;;4982343;28;20113;-57
2022/02/20 02:06:13;;;;;;;10.30;6.82;;;;;;;;;;4983418;28;20292;-57
2022/02/20 02:08:39;;;;;;;9.50;6.05;;;;;;;;;;5000243;28;20105;-56
2022/02/20 02:11:04;;;;;;;8.75;6.82;;;;;;;;;;4966344;28;20389;-56
2022/02/20 02:13:29;;;;;;;8.98;6.03;;;;;;;;;;5001194;28;20029;-56
2022/02/20 02:15:55;;;;;;;10.40;6.47;;;;;;;;;;5001265;28;20144;-56
2022/02/20 02:18:20;;;;;;;10.38;6.40;;;;;;;;;;5000204;28;20121;-55
2022/02/20 02:20:45;;;;;;;9.35;5.78;;;;;;;;;;5000819;28;20005;-56
2022/02/20 02:23:11;;;;;;;10.07;6.10;;;;;;;;;;5003243;28;20030;-57
2022/02/20 02:25:36;;;;;;;9.95;6.20;;;;;;;;;;5003985;28;20016;-56
2022/02/20 02:28:02;;;;;;;10.30;7.00;;;;;;;;;;5004042;28;20029;-57
2022/02/20 02:30:27;;;;;;;10.50;6.07;;;;;;;;;;5003043;28;20076;-56
2022/02/20 02:32:52;;;;;;;11.90;6.57;;;;;;;;;;5002304;28;20512;-55
2022/02/20 02:35:19;;;;;;;10.57;6.20;;;;;;;;;;5001243;28;20288;-56
2022/02/20 02:37:44;;;;;;;11.35;7.18;;;;;;;;;;5001480;28;20114;-56
2022/02/20 02:40:10;;;;;;;9.68;6.65;;;;;;;;;;5000467;28;20120;-54
2022/02/20 02:42:35;;;;;;;10.98;6.80;;;;;;;;;;4981373;28;20512;-54
2022/02/20 02:45:00;;;;;;;9.43;6.27;;;;;;;;;;4999583;28;20053;-55
2022/02/20 02:47:25;;;;;;;9.80;6.43;;;;;;;;;;4999881;28;20289;-54
2022/02/20 02:49:51;;;;;;;9.48;6.38;;;;;;;;;;5000948;28;20033;-55
2022/02/20 02:52:16;;;;;;;9.17;6.47;;;;;;;;;;5004358;28;20484;-56
2022/02/20 02:54:41;;;;;;;10.00;5.97;;;;;;;;;;5003624;28;20710;-56
2022/02/20 02:57:06;;;;;;;10.97;7.33;;;;;;;;;;5003427;28;21106;-56
2022/02/20 02:59:31;;;;;;;11.45;7.35;;;;;;;;;;4993663;28;20307;-56
2022/02/20 03:02:02;;;;;;;9.75;6.53;;;;;;;;;;4979880;28;20072;-56
2022/02/20 03:04:27;;;;;;;;;;;;;;;;;;4973714;28;20046;-55
2022/02/20 03:06:52;;;;;;;9.80;6.15;;;;;;;;;;4993213;28;19909;-55
2022/02/20 03:09:17;;;;;;;10.63;6.60;;;;;;;;;;5009074;28;20049;-56
2022/02/20 03:11:42;;;;;;;9.73;6.87;;;;;;;;;;5007931;28;20026;-56
2022/02/20 03:14:08;;;;;;;9.00;6.03;;;;;;;;;;5004963;28;20363;-56
2022/02/20 03:16:33;;;;;;;11.45;6.70;;;;;;;;;;5003282;28;20671;-56
2022/02/20 03:18:59;;;;;;;10.70;6.77;;;;;;;;;;5002982;28;20396;-56
2022/02/20 03:21:24;;;;;;;10.57;6.23;;;;;;;;;;4986228;28;20335;-56
2022/02/20 03:23:49;;;;;;;9.63;6.10;;;;;;;;;;5003295;28;20371;-56
2022/02/20 03:26:14;;;;;;;9.60;6.10;;;;;;;;;;5003846;28;20276;-55
2022/02/20 03:28:39;;;;;;;11.17;6.53;;;;;;;;;;5003640;28;20081;-54
2022/02/20 03:31:05;;;;;;;9.33;6.30;;;;;;;;;;5003538;28;20049;-56
2022/02/20 03:33:30;;;;;;;10.35;6.35;;;;;;;;;;5003124;28;20280;-56
2022/02/20 03:35:55;;;;;;;11.35;6.70;;;;;;;;;;5002963;28;20021;-57
2022/02/20 03:38:21;;;;;;;10.50;6.55;;;;;;;;;;5003072;28;20033;-58
2022/02/20 03:40:46;;;;;;;9.50;6.30;;;;;;;;;;5003046;28;20088;-58
2022/02/20 03:43:11;;;;;;;10.35;6.53;;;;;;;;;;5002470;28;20949;-59
2022/02/20 03:45:36;;;;;;;10.40;6.73;;;;;;;;;;5003140;28;20036;-57
2022/02/20 03:48:02;;;;;;;10.52;6.57;;;;;;;;;;4985218;28;20292;-57
2022/02/20 03:50:27;;;;;;;11.50;7.03;;;;;;;;;;4999850;28;20037;-54
2022/02/20 03:52:52;;;;;;;10.55;7.18;;;;;;;;;;5003221;28;20481;-57
2022/02/20 03:55:17;;;;;;;10.05;6.88;;;;;;;;;;5002709;28;20033;-57
2022/02/20 03:57:43;;;;;;;10.30;6.68;;;;;;;;;;5002581;28;20028;-57
2022/02/20 04:00:10;;;;;;;9.35;6.88;;;;;;;;;;4984806;28;20038;-56
2022/02/20 04:02:38;;;;;;;10.57;6.82;;;;;;;;;;5001487;28;20301;-56
2022/02/20 04:05:04;;;;;;;10.52;6.43;;;;;;;;;;5002108;28;20022;-57
2022/02/20 04:07:30;;;;;;;10.80;7.15;;;;;;;;;;5002837;28;20056;-57
2022/02/20 04:09:55;;;;;;;9.67;6.77;;;;;;;;;;5002513;28;20037;-57
2022/02/20 04:12:20;;;;;;;10.10;6.70;;;;;;;;;;4998427;28;20393;-57
2022/02/20 04:14:45;;;;;;;9.65;6.43;;;;;;;;;;4984489;28;20033;-57
2022/02/20 04:17:11;;;;;;;11.30;6.53;;;;;;;;;;5002635;28;20026;-57
2022/02/20 04:19:36;;;;;;;11.10;7.43;;;;;;;;;;5001880;28;20032;-57
2022/02/20 04:22:01;;;;;;;10.33;6.70;;;;;;;;;;5002015;28;20056;-57
2022/02/20 04:24:26;;;;;;;9.40;6.60;;;;;;;;;;5001135;28;20285;-56
2022/02/20 04:26:52;;;;;;;10.60;6.67;;;;;;;;;;4965401;28;20028;-57
2022/02/20 04:29:17;;;;;;;9.43;6.50;;;;;;;;;;4983204;28;21158;-56
2022/02/20 04:31:42;;;;;;;8.93;6.20;;;;;;;;;;4983620;28;20677;-57
2022/02/20 04:34:07;;;;;;;11.20;6.90;;;;;;;;;;4997833;28;20672;-57
2022/02/20 04:36:35;;;;;;;9.10;6.78;;;;;;;;;;5004536;28;20104;-56
2022/02/20 04:39:01;;;;;;;10.18;6.55;;;;;;;;;;5016642;28;20695;-57
2022/02/20 04:41:26;;;;;;;9.60;6.85;;;;;;;;;;4984753;28;20220;-57
2022/02/20 04:43:51;;;;;;;9.60;6.13;;;;;;;;;;5001678;28;20879;-57
2022/02/20 04:46:17;;;;;;;8.98;6.70;;;;;;;;;;5001691;28;20029;-56
2022/02/20 04:48:43;;;;;;;9.38;6.70;;;;;;;;;;5001389;28;20046;-57
2022/02/20 04:51:08;;;;;;;10.75;6.65;;;;;;;;;;5000422;28;20026;-59
2022/02/20 04:53:33;;;;;;;8.75;6.18;;;;;;;;;;4984047;28;21083;-57
2022/02/20 04:55:59;;;;;;;8.83;6.37;;;;;;;;;;5002720;28;20065;-55
2022/02/20 04:58:25;;;;;;;8.35;5.75;;;;;;;;;;5001439;28;20014;-54
2022/02/20 05:00:50;;;;;;;9.90;6.37;;;;;;;;;;5002134;28;20036;-55
2022/02/20 05:03:15;;;;;;;10.35;6.90;;;;;;;;;;5001542;28;20026;-56
2022/02/20 05:05:40;;;;;;;9.33;6.33;;;;;;;;;;5001264;28;20112;-57
2022/02/20 05:08:06;;;;;;;9.53;6.40;;;;;;;;;;5001708;28;20780;-56
2022/02/20 05:10:31;;;;;;;10.13;6.30;;;;;;;;;;5001133;28;20022;-56
2022/02/20 05:12:56;;;;;;;8.63;6.60;;;;;;;;;;4999996;28;20436;-56
2022/02/20 05:15:21;;;;;;;12.83;7.27;;;;;;;;;;5001777;28;20415;-57
2022/02/20 05:17:47;;;;;;;9.93;6.83;;;;;;;;;;5000955;28;20121;-56
2022/02/20 05:20:12;;;;;;;9.70;6.50;;;;;;;;;;5001300;28;20164;-57
2022/02/20 05:22:37;;;;;;;8.95;6.28;;;;;;;;;;5001100;28;20308;-56
2022/02/20 05:25:02;;;;;;;9.37;6.60;;;;;;;;;;5000735;28;20029;-56
2022/02/20 05:27:28;;;;;;;8.73;5.88;;;;;;;;;;5000854;28;20280;-56
2022/02/20 05:29:53;;;;;;;8.80;6.30;;;;;;;;;;5000787;28;20042;-57
2022/02/20 05:32:23;;;;;;;10.40;6.47;;;;;;;;;;4996266;28;20467;-56
2022/02/20 05:34:49;;;;;;;9.27;6.18;;;;;;;;;;4991478;28;20025;-56
2022/02/20 05:37:14;;;;;;;10.38;6.20;;;;;;;;;;4994049;28;20038;-56
2022/02/20 05:39:39;;;;;;;10.33;5.97;;;;;;;;;;4991695;28;20026;-57
2022/02/20 05:42:04;;;;;;;9.97;6.50;;;;;;;;;;5000456;28;20022;-56
2022/02/20 05:44:30;;;;;;;9.60;6.40;;;;;;;;;;5000364;28;20371;-56
2022/02/20 05:46:55;;;;;;;7.57;5.90;;;;;;;;;;5000588;28;20014;-57
2022/02/20 05:49:20;;;;;;;7.87;6.07;;;;;;;;;;5000387;28;20103;-57
2022/02/20 05:51:45;;;;;;;8.40;5.83;;;;;;;;;;5000458;28;20364;-57
2022/02/20 05:54:10;;;;;;;9.83;6.47;;;;;;;;;;5000333;28;20148;-56
2022/02/20 05:56:36;;;;;;;8.43;6.20;;;;;;;;;;5000121;28;20390;-56
2022/02/20 05:59:01;;;;;;;9.87;6.20;;;;;;;;;;5000283;28;20109;-57
2022/02/20 06:01:27;;;;;;;8.93;6.43;;;;;;;;;;4992231;28;20101;-57
2022/02/20 06:03:52;;;;;;;9.77;6.38;;;;;;;;;;4975301;28;20060;-61
2022/02/20 06:06:18;;;;;;;9.40;6.40;;;;;;;;;;5001433;28;20455;-54
2022/02/20 06:08:43;;;;;;;9.43;6.22;;;;;;;;;;4989419;28;20034;-58
2022/02/20 06:11:09;;;;;;;9.20;6.00;;;;;;;;;;5000403;28;20030;-57
2022/02/20 06:13:34;;;;;;;9.75;6.65;;;;;;;;;;4981529;28;20326;-57
2022/02/20 06:15:59;;;;;;;9.07;6.07;;;;;;;;;;5000001;28;20139;-56
2022/02/20 06:18:25;;;;;;;9.60;5.80;;;;;;;;;;4983829;28;20331;-57
2022/02/20 06:20:50;;;;;;;8.63;6.93;;;;;;;;;;4971713;28;20093;-57
2022/02/20 06:23:15;;;;;;;9.60;5.93;;;;;;;;;;4997972;28;20145;-56
2022/02/20 06:25:41;;;;;;;10.00;6.27;;;;;;;;;;4992893;28;20340;-55
2022/02/20 06:28:07;;;;;;;8.93;5.75;;;;;;;;;;4997172;28;20025;-56
2022/02/20 06:30:32;;;;;;;9.53;6.50;;;;;;;;;;5003458;28;20036;-55
2022/02/20 06:32:57;;;;;;;9.35;6.53;;;;;;;;;;5003154;28;20029;-57
2022/02/20 06:35:22;;;;;;;10.37;6.33;;;;;;;;;;5003073;28;20385;-56
2022/02/20 06:37:47;;;;;;;8.48;5.78;;;;;;;;;;4994076;28;20408;-55
2022/02/20 06:40:13;;;;;;;9.40;5.87;;;;;;;;;;4995817;28;20034;-56
2022/02/20 06:42:39;;;;;;;9.80;6.50;;;;;;;;;;4985132;28;20022;-58
2022/02/20 06:45:04;;;;;;;11.30;6.25;;;;;;;;;;5003179;28;20096;-58
2022/02/20 06:47:30;;;;;;;11.80;6.32;;;;;;;;;;4994317;28;20046;-57
2022/02/20 06:49:55;;;;;;;10.88;6.53;;;;;;;;;;4984278;28;20105;-58
2022/02/20 06:52:20;;;;;;;9.30;6.00;;;;;;;;;;4999449;28;20029;-56
2022/02/20 06:54:45;;;;;;;9.77;6.20;;;;;;;;;;4988241;28;20021;-57
2022/02/20 06:57:10;;;;;;;9.47;6.20;;;;;;;;;;5002758;28;20779;-58
2022/02/20 06:59:36;;;;;;;10.17;6.33;;;;;;;;;;5002985;28;20033;-58
2022/02/20 07:02:01;;;;;;;9.63;6.10;;;;;;;;;;5002762;28;20472;-58
2022/02/20 07:04:28;;;;;;;11.80;6.30;;;;;;;;;;5002131;28;20141;-56
2022/02/20 07:06:54;;;;;;;9.68;6.63;;;;;;;;;;5002898;28;20394;-57
2022/02/20 07:09:20;;;;;;;9.02;6.00;;;;;;;;;;5003678;28;20088;-57
2022/02/20 07:11:45;;;;;;;9.47;6.20;;;;;;;;;;5002999;28;20083;-56
2022/02/20 07:14:10;;;;;;;8.68;5.78;;;;;;;;;;5002807;28;20614;-57
2022/02/20 07:16:35;;;;;;;9.73;6.05;;;;;;;;;;5003217;28;20459;-57
2022/02/20 07:19:01;;;;;;;14.00;6.87;;;;;;;;;;4996096;28;20028;-57
2022/02/20 07:21:28;;;;;;;8.85;6.00;;;;;;;;;;5003084;28;20557;-56
2022/02/20 07:23:53;;;;;;;8.65;6.10;;;;;;;;;;5002615;28;20029;-58
2022/02/20 07:26:19;;;;;;;8.60;6.07;;;;;;;;;;5002525;28;20748;-55
2022/02/20 07:28:44;;;;;;;8.07;5.95;;;;;;;;;;5002985;28;20033;-55
2022/02/20 07:31:09;;;;;;;10.00;6.50;;;;;;;;;;4996944;28;20033;-57
2022/02/20 07:33:34;;;;;;;9.43;5.87;;;;;;;;;;4987830;28;20320;-58
2022/02/20 07:36:00;;;;;;;8.80;5.70;;;;;;;;;;4990336;28;20034;-57
2022/02/20 07:38:25;;;;;;;9.27;6.25;;;;;;;;;;4974323;28;20859;-55
2022/02/20 07:40:51;;;;;;;9.60;6.30;;;;;;;;;;4994416;28;20619;-56
2022/02/20 07:43:16;;;;;;;8.73;6.22;;;;;;;;;;4980324;28;20034;-56
2022/02/20 07:45:41;;;;;;;8.60;6.40;;;;;;;;;;4995791;28;20017;-56
2022/02/20 07:48:06;;;;;;;9.47;5.63;;;;;;;;;;5001276;28;20057;-56
2022/02/20 07:50:32;;;;;;;8.63;5.95;;;;;;;;;;5000904;28;20041;-55
2022/02/20 07:52:58;;;;;;;8.82;6.00;;;;;;;;;;5001251;28;20088;-55
2022/02/20 07:55:23;;;;;;;10.52;6.13;;;;;;;;;;5001150;28;20025;-56
2022/02/20 07:57:48;;;;;;;9.25;6.28;;;;;;;;;;4982972;28;20389;-55
2022/02/20 08:00:15;;;;;;;8.70;5.97;;;;;;;;;;5001102;28;20026;-57
2022/02/20 08:02:41;;;;;;;9.15;5.93;;;;;;;;;;5001311;28;20269;-57
2022/02/20 08:05:06;;;;;;;9.32;5.70;;;;;;;;;;4994986;28;20633;-57
2022/02/20 08:07:31;;;;;;;8.13;5.80;;;;;;;;;;5000820;28;20133;-57
2022/02/20 08:09:57;;;;;;;8.57;6.10;;;;;;;;;;5001270;28;20452;-57
2022/02/20 08:12:22;;;;;;;8.63;6.00;;;;;;;;;;4999481;28;20484;-58
2022/02/20 08:14:47;;;;;;;8.40;6.20;;;;;;;;;;5001129;28;20532;-57
2022/02/20 08:17:12;;;;;;;9.07;6.25;;;;;;;;;;5000860;28;20668;-59
2022/02/20 08:19:38;;;;;;;8.20;5.97;;;;;;;;;;5001267;28;20033;-59
2022/02/20 08:22:03;;;;;;;8.87;5.77;;;;;;;;;;5001111;28;20022;-57
2022/02/20 08:24:28;;;;;;;9.07;6.17;;;;;;;;;;4989959;28;20618;-57
2022/02/20 08:26:53;;;;;;;9.63;6.73;;;;;;;;;;4993840;28;20544;-60
2022/02/20 08:29:21;;;;;;;9.95;6.43;;;;;;;;;;5000449;28;20452;-61
2022/02/20 08:31:47;;;;;;;8.55;6.03;;;;;;;;;;4989924;28;20030;-56
2022/02/20 08:34:12;;;;;;;9.82;6.20;;;;;;;;;;4997452;28;20507;-58
2022/02/20 08:36:38;;;;;;;8.00;6.00;;;;;;;;;;4999439;28;20029;-56
2022/02/20 08:39:04;;;;;;;7.95;6.20;;;;;;;;;;5000285;28;20064;-54
2022/02/20 08:41:29;;;;;;;8.20;5.97;;;;;;;;;;4998299;28;20046;-57
2022/02/20 08:43:54;;;;;;;8.90;6.07;;;;;;;;;;4979288;28;20282;-53
2022/02/20 08:46:19;;;;;;;7.90;5.83;;;;;;;;;;4985411;28;20288;-55
2022/02/20 08:48:46;;;;;;;9.63;6.50;;;;;;;;;;4996567;28;20471;-55
2022/02/20 08:51:11;;;;;;;8.80;5.95;;;;;;;;;;5000279;28;20269;-55
2022/02/20 08:53:38;;;;;;;9.63;6.47;;;;;;;;;;4999247;28;20482;-57
2022/02/20 08:56:06;;;;;;;7.68;5.82;;;;;;;;;;4999623;28;20057;-56
2022/02/20 08:58:31;;;;;;;8.27;5.97;;;;;;;;;;4998689;28;20048;-58
2022/02/20 09:00:56;;;;;;;8.10;6.07;;;;;;;;;;5000661;28;20054;-57
2022/02/20 09:03:22;;;;;;;8.05;6.07;;;;;;;;;;4994593;28;20790;-57
2022/02/20 09:05:47;;;;;;;8.13;5.83;;;;;;;;;;4996130;28;20420;-57
2022/02/20 09:08:12;;;;;;;8.77;5.97;;;;;;;;;;5000790;28;20701;-59
2022/02/20 09:10:38;;;;;;;8.40;5.90;;;;;;;;;;5000717;28;20867;-57
2022/02/20 09:13:03;;;;;;;8.13;5.93;;;;;;;;;;4999533;28;20496;-56
2022/02/20 09:15:28;;;;;;;8.07;6.23;;;;;;;;;;4998374;28;20073;-57
2022/02/20 09:17:54;;;;;;;8.83;6.00;;;;;;;;;;4998979;28;20070;-56
2022/02/20 09:20:20;;;;;;;8.40;6.30;;;;;;;;;;4999003;28;20296;-54
2022/02/20 09:22:46;;;;;;;9.23;6.60;;;;;;;;;;4982211;28;20029;-54
2022/02/20 09:25:11;;;;;;;7.82;6.07;;;;;;;;;;5000977;28;20052;-56
2022/02/20 09:27:36;;;;;;;8.77;5.90;;;;;;;;;;5000967;28;20445;-55
2022/02/20 09:30:02;;;;;;;8.47;5.90;;;;;;;;;;5001003;28;20444;-57
2022/02/20 09:32:27;;;;;;;9.30;6.10;;;;;;;;;;5001207;28;20424;-55
2022/02/20 09:34:53;;;;;;;8.37;5.97;;;;;;;;;;5000172;28;20022;-57
2022/02/20 09:37:18;;;;;;;8.60;6.10;;;;;;;;;;5000605;28;20037;-57
2022/02/20 09:39:43;;;;;;;7.80;5.53;;;;;;;;;;5001191;28;20032;-55
2022/02/20 09:42:09;;;;;;;8.32;5.82;;;;;;;;;;5000796;28;20393;-59
2022/02/20 09:44:34;;;;;;;7.77;5.60;;;;;;;;;;4980231;28;20026;-57
2022/02/20 09:46:59;;;;;;;8.80;5.73;;;;;;;;;;4996359;28;20536;-56
2022/02/20 09:49:25;;;;;;;9.47;6.53;;;;;;;;;;4970784;28;20501;-57
2022/02/20 09:51:50;;;;;;;7.97;6.13;;;;;;;;;;5000351;28;20544;-57
2022/02/20 09:54:15;;;;;;;8.57;6.10;;;;;;;;;;5000636;28;20018;-56
2022/02/20 09:56:42;;;;;;;8.50;5.90;;;;;;;;;;4999972;28;20033;-55
2022/02/20 09:59:07;;;;;;;11.23;6.00;;;;;;;;;;4991044;28;20677;-56
2022/02/20 10:01:32;;;;;;;9.10;6.07;;;;;;;;;;4994020;28;20076;-54
2022/02/20 10:03:57;;;;;;;8.47;5.83;;;;;;;;;;4993811;28;20384;-57
2022/02/20 10:06:28;;;;;;;9.43;6.33;;;;;;;;;;4981966;28;20512;-62
2022/02/20 10:08:55;;;;;;;9.15;6.45;;;;;;;;;;4998893;28;20026;-60
2022/02/20 10:11:27;;;;;;;11.00;6.90;;;;;;;;;;4999195;28;20025;-55
2022/02/20 10:13:53;;;;;;;9.10;6.60;;;;;;;;;;4998425;28;20550;-56
2022/02/20 10:16:25;;;;;;;9.02;7.00;;;;;;;;;;4999269;28;20034;-55
2022/02/20 10:18:50;;;;;;;8.80;6.75;;;;;;;;;;5015867;28;20380;-57
2022/02/20 10:21:19;;;;;;;7.72;6.15;;;;;;;;;;4999305;28;20076;-58
2022/02/20 10:23:44;;;;;;;9.52;6.78;;;;;;;;;;4999523;28;20549;-58
2022/02/20 10:26:10;;;;;;;9.03;6.43;;;;;;;;;;5000092;28;20088;-58
2022/02/20 10:28:35;;;;;;;9.43;6.18;;;;;;;;;;4999886;28;20026;-58
2022/02/20 10:31:01;;;;;;;8.97;6.67;;;;;;;;;;4978347;28;20022;-58
2022/02/20 10:33:27;;;;;;;8.00;6.07;;;;;;;;;;4980532;28;20356;-59
2022/02/20 10:35:52;;;;;;;8.35;6.45;;;;;;;;;;4980373;28;20066;-58
2022/02/20 10:38:21;;;;;;;8.43;6.10;;;;;;;;;;4991021;28;20040;-57
2022/02/20 10:40:48;;;;;;;7.85;5.80;;;;;;;;;;5000706;28;20026;-58
2022/02/20 10:43:31;;;;;;;8.40;6.38;;;;;;;;;;4999645;28;20535;-60
2022/02/20 10:46:20;;;;;;;10.05;5.95;;;;;;;;;;4999813;28;20037;-57
2022/02/20 10:48:46;;;;;;;10.13;6.50;;;;;;;;;;4991365;28;20053;-59
2022/02/20 10:51:12;;;;;;;8.60;6.28;;;;;;;;;;4992407;28;20026;-59
2022/02/20 10:53:37;;;;;;;9.10;5.90;;;;;;;;;;4999790;28;20033;-58
2022/02/20 10:56:03;;;;;;;8.57;5.80;;;;;;;;;;4999826;28;20559;-58
2022/02/20 10:58:29;;;;;;;9.95;6.75;;;;;;;;;;4999421;28;20531;-60
2022/02/20 11:00:55;;;;;;;8.25;6.00;;;;;;;;;;4999623;28;20029;-59
2022/02/20 11:03:21;;;;;;;8.68;6.03;;;;;;;;;;4999331;28;20033;-59
2022/02/20 11:05:47;;;;;;;9.50;6.13;;;;;;;;;;4982473;28;20030;-57
2022/02/20 11:08:12;;;;;;;8.93;5.93;;;;;;;;;;4999909;28;20045;-58
2022/02/20 11:10:38;;;;;;;8.65;5.85;;;;;;;;;;5001116;28;20065;-58
2022/02/20 11:13:03;;;;;;;9.35;6.30;;;;;;;;;;5002945;28;20386;-58
2022/02/20 11:15:28;;;;;;;7.65;5.50;;;;;;;;;;4982693;28;20093;-58
2022/02/20 11:18:00;;;;;;;9.03;5.90;;;;;;;;;;4976720;28;20425;-57
2022/02/20 11:20:26;;;;;;;8.05;5.63;;;;;;;;;;5003488;28;20022;-58
2022/02/20 11:22:52;;;;;;;9.38;5.68;;;;;;;;;;4985351;28;20108;-57
2022/02/20 11:25:17;;;;;;;7.77;6.00;;;;;;;;;;4985536;28;20124;-57
2022/02/20 11:27:42;;;;;;;8.33;6.23;;;;;;;;;;5003002;28;20109;-57
2022/02/20 11:30:08;;;;;;;8.20;5.68;;;;;;;;;;5002811;28;20308;-57
2022/02/20 11:32:36;;;;;;;8.10;5.80;;;;;;;;;;5003066;28;20101;-57
2022/02/20 11:35:01;;;;;;;7.60;5.78;;;;;;;;;;4986853;28;20053;-58
2022/02/20 11:37:44;;;;;;;7.27;5.73;;;;;;;;;;4981407;28;20026;-59
2022/02/20 11:40:14;;;;;;;8.00;5.78;;;;;;;;;;4996599;28;20037;-58
2022/02/20 11:42:43;;;;;;;8.25;5.97;;;;;;;;;;5002332;28;20017;-58
2022/02/20 11:45:09;;;;;;;7.88;5.65;;;;;;;;;;4981762;28;20040;-57
2022/02/20 11:47:34;;;;;;;7.32;6.18;;;;;;;;;;4986137;28;20047;-57
2022/02/20 11:50:17;;;;;;;8.67;6.13;;;;;;;;;;4982977;28;20062;-57
2022/02/20 11:52:48;;;;;;;7.60;5.53;;;;;;;;;;4981147;28;20030;-58
2022/02/20 11:55:13;;;;;;;8.60;5.50;;;;;;;;;;4968687;28;20034;-57
2022/02/20 11:57:38;;;;;;;8.93;5.80;;;;;;;;;;4964749;28;20041;-57
2022/02/20 12:00:04;;;;;;;7.60;5.30;;;;;;;;;;4983206;28;20035;-58
2022/02/20 12:02:30;;;;;;;8.32;5.85;;;;;;;;;;4983309;28;20113;-58
2022/02/20 12:04:55;;;;;;;7.05;5.55;;;;;;;;;;4982843;28;20097;-58
2022/02/20 12:07:27;;;;;;;8.67;5.73;;;;;;;;;;4983016;28;20126;-57
2022/02/20 12:10:12;;;;;;;8.05;5.57;;;;;;;;;;4982528;28;20046;-58
2022/02/20 12:12:37;;;;;;;7.47;5.40;;;;;;;;;;4982379;28;20073;-56
2022/02/20 12:15:21;;;;;;;7.47;5.87;;;;;;;;;;4982308;28;20038;-56
2022/02/20 12:18:05;;;;;;;7.18;5.10;;;;;;;;;;4964841;28;20794;-58
2022/02/20 12:20:49;;;;;;;7.25;5.28;;;;;;;;;;4982183;28;20022;-57
2022/02/20 12:23:32;;;;;;;7.30;5.13;;;;;;;;;;4981864;28;20456;-56
2022/02/20 12:26:01;;;;;;;7.03;5.10;;;;;;;;;;4970868;28;20041;-57
2022/02/20 12:28:39;;;;;;;7.93;5.53;;;;;;;;;;4977470;28;20053;-55
2022/02/20 12:31:10;;;;;;;7.18;5.20;;;;;;;;;;4982541;28;20112;-55
2022/02/20 12:33:36;;;;;;;7.53;5.20;;;;;;;;;;4974063;28;20081;-56
2022/02/20 12:36:02;;;;;;;7.00;5.22;;;;;;;;;;4967132;28;20026;-57
2022/02/20 12:38:27;;;;;;;7.85;5.20;;;;;;;;;;4980719;28;20026;-55
2022/02/20 12:40:52;;;;;;;6.53;5.00;;;;;;;;;;4981861;28;20543;-56
2022/02/20 12:43:18;;;;;;;6.22;4.82;;;;;;;;;;4963755;28;20604;-56
2022/02/20 12:45:44;;;;;;;7.47;5.50;;;;;;;;;;4972370;28;20356;-56
2022/02/20 12:48:10;;;;;;;7.32;5.43;;;;;;;;;;4963555;28;20050;-56
2022/02/20 12:50:40;;;;;;;6.97;5.05;;;;;;;;;;4962861;28;20526;-56
2022/02/20 12:53:05;;;;;;;7.60;5.25;;;;;;;;;;4963999;28;20029;-56
2022/02/20 12:55:30;;;;;;;7.57;5.32;;;;;;;;;;4963375;28;20425;-57
2022/02/20 12:57:56;;;;;;;6.90;5.25;;;;;;;;;;4969728;28;20025;-57
2022/02/20 13:00:22;;;;;;;6.57;4.50;;;;;;;;;;4962512;28;20509;-56
2022/02/20 13:02:55;;;;;;;7.28;5.25;;;;;;;;;;4980084;28;20333;-56
2022/02/20 13:05:34;;;;;;;7.95;5.10;;;;;;;;;;4963109;28;20473;-55
2022/02/20 13:08:09;;;;;;;7.55;5.20;;;;;;;;;;4963216;28;20570;-57
2022/02/20 13:10:35;;;;;;;6.43;4.47;;;;;;;;;;4966017;28;21139;-56
2022/02/20 13:13:02;;;;;;;6.57;4.95;;;;;;;;;;4964818;28;20481;-55
2022/02/20 13:15:28;;;;;;;5.93;4.40;;;;;;;;;;4978658;28;20022;-57
2022/02/20 13:17:57;;;;;;;6.53;4.70;;;;;;;;;;4948662;28;20026;-56
2022/02/20 13:20:34;;;;;;;6.40;4.60;;;;;;;;;;4970374;28;20082;-57
2022/02/20 13:23:11;;;;;;;7.22;4.97;;;;;;;;;;4962399;28;20096;-58
2022/02/20 13:25:36;;;;;;;5.82;4.80;;;;;;;;;;4962222;28;20021;-58
2022/02/20 13:28:02;;;;;;;6.10;4.70;;;;;;;;;;4963987;28;20410;-57
2022/02/20 13:30:28;;;;;;;6.75;4.88;;;;;;;;;;4962531;28;20121;-56
2022/02/20 13:32:54;;;;;;;6.10;4.57;;;;;;;;;;4980417;28;20018;-56
2022/02/20 13:35:31;;;;;;;6.55;4.65;;;;;;;;;;4980091;28;20936;-55
2022/02/20 13:37:56;;;;;;;6.68;4.47;;;;;;;;;;4981372;28;20026;-57
2022/02/20 13:40:22;;;;;;;5.30;4.50;;;;;;;;;;4951668;28;20034;-55
2022/02/20 13:43:07;;;;;;;6.10;4.30;;;;;;;;;;4959887;28;20270;-57
2022/02/20 13:45:33;;;;;;;6.38;4.55;;;;;;;;;;4960195;28;20285;-57
2022/02/20 13:47:58;;;;;;;6.05;4.50;;;;;;;;;;4980082;28;20468;-58
2022/02/20 13:50:23;;;;;;;5.95;4.43;;;;;;;;;;4999841;28;20042;-58
2022/02/20 13:52:49;;;;;;;5.95;4.45;;;;;;;;;;5000253;28;20026;-56
2022/02/20 13:55:40;;;;;;;6.47;4.95;;;;;;;;;;5000957;28;20025;-58
2022/02/20 13:58:12;;;;;;;8.27;4.88;;;;;;;;;;4990397;28;20038;-57
2022/02/20 14:00:37;;;;;;;11.95;5.28;;;;;;;;;;4995466;28;20113;-55
2022/02/20 14:03:02;;;;;;;8.13;4.93;;;;;;;;;;4998349;28;20184;-56
2022/02/20 14:05:28;;;;;;;5.97;4.27;;;;;;;;;;4977997;28;20060;-56
2022/02/20 14:08:03;;;;;;;7.72;4.80;;;;;;;;;;4988600;28;20040;-55
2022/02/20 14:10:28;;;;;;;8.45;4.60;;;;;;;;;;4997419;28;20568;-56
2022/02/20 14:12:53;;;;;;;6.90;4.68;;;;;;;;;;4983544;28;20154;-57
2022/02/20 14:15:27;;;;;;;6.20;4.40;;;;;;;;;;4981554;28;20077;-56
2022/02/20 14:17:58;;;;;;;5.88;4.25;;;;;;;;;;4981294;28;20626;-57
2022/02/20 14:20:24;;;;;;;6.78;4.43;;;;;;;;;;4981035;28;20037;-59
2022/02/20 14:22:50;;;;;;;7.80;4.38;;;;;;;;;;4984860;28;20130;-56
2022/02/20 14:25:17;;;;;;;6.30;4.20;;;;;;;;;;4981050;28;20113;-57
2022/02/20 14:27:43;;;;;;;5.93;4.30;;;;;;;;;;4965440;28;20497;-57
2022/02/20 14:30:09;;;;;;;6.65;4.03;;;;;;;;;;4985085;28;20029;-57
2022/02/20 14:32:35;;;;;;;8.07;4.40;;;;;;;;;;5000565;28;20022;-55
2022/02/20 14:35:00;;;;;;;5.57;3.92;;;;;;;;;;4999471;28;20442;-55